createdAt,value
2022-08-28T00:00:58.736Z,19.23
2022-08-28T00:01:58.728Z,19.20
2022-08-28T00:02:58.792Z,19.20
2022-08-28T00:03:58.759Z,19.22
2022-08-28T00:04:58.787Z,19.22
2022-08-28T00:05:58.697Z,19.22
2022-08-28T00:06:58.679Z,19.22
2022-08-28T00:07:58.667Z,19.20
2022-08-28T00:08:58.980Z,19.17
2022-08-28T00:09:58.781Z,19.20
2022-08-28T00:10:58.643Z,19.20
2022-08-28T00:11:58.649Z,19.19
2022-08-28T00:12:58.639Z,19.19
2022-08-28T00:13:58.607Z,19.19
2022-08-28T00:14:58.591Z,19.20
2022-08-28T00:15:58.627Z,19.23
2022-08-28T00:16:58.699Z,19.23
2022-08-28T00:17:58.560Z,19.20
2022-08-28T00:18:58.563Z,19.17
2022-08-28T00:19:58.549Z,19.17
2022-08-28T00:20:58.554Z,19.17
2022-08-28T00:21:58.512Z,19.16
2022-08-28T00:22:58.522Z,19.17
2022-08-28T00:23:59.284Z,19.19
2022-08-28T00:24:58.510Z,19.16
2022-08-28T00:25:58.541Z,19.17
2022-08-28T00:26:58.752Z,19.19
2022-08-28T00:27:58.446Z,19.19
2022-08-28T00:28:58.434Z,19.19
2022-08-28T00:29:58.462Z,19.17
2022-08-28T00:30:58.461Z,19.19
2022-08-28T00:31:58.504Z,19.15
2022-08-28T00:32:58.393Z,19.15
2022-08-28T00:33:58.390Z,19.16
2022-08-28T00:34:58.426Z,19.13
2022-08-28T00:35:58.360Z,19.09
2022-08-28T00:36:59.297Z,19.13
2022-08-28T00:37:58.366Z,19.15
2022-08-28T00:38:58.337Z,19.13
2022-08-28T00:39:58.360Z,19.09
2022-08-28T00:40:59.269Z,19.08
2022-08-28T00:41:58.303Z,19.05
2022-08-28T00:42:58.313Z,19.05
2022-08-28T00:43:58.267Z,19.01
2022-08-28T00:44:58.287Z,19.01
2022-08-28T00:45:58.251Z,19.05
2022-08-28T00:46:58.241Z,19.07
2022-08-28T00:47:58.251Z,19.05
2022-08-28T00:48:58.539Z,19.01
2022-08-28T00:49:58.262Z,18.98
2022-08-28T00:51:00.403Z,18.98
2022-08-28T00:51:58.199Z,18.98
2022-08-28T00:52:58.181Z,18.96
2022-08-28T00:53:59.325Z,18.96
2022-08-28T00:54:59.235Z,19.00
2022-08-28T00:55:58.144Z,18.97
2022-08-28T00:56:58.142Z,18.96
2022-08-28T00:57:58.162Z,18.96
2022-08-28T00:58:58.152Z,18.97
2022-08-28T00:59:58.211Z,18.96
2022-08-28T01:00:58.116Z,18.96
2022-08-28T01:01:58.155Z,18.97
2022-08-28T01:02:58.430Z,18.97
2022-08-28T01:03:58.087Z,18.94
2022-08-28T01:04:58.080Z,18.96
2022-08-28T01:05:58.035Z,18.94
2022-08-28T01:06:58.024Z,18.91
2022-08-28T01:07:58.035Z,18.89
2022-08-28T01:08:59.023Z,18.91
2022-08-28T01:09:58.131Z,18.89
2022-08-28T01:10:57.987Z,18.91
2022-08-28T01:11:57.975Z,18.88
2022-08-28T01:12:57.954Z,18.91
2022-08-28T01:13:57.956Z,18.93
2022-08-28T01:14:58.054Z,18.93
2022-08-28T01:15:57.980Z,18.96
2022-08-28T01:16:57.907Z,18.94
2022-08-28T01:17:57.907Z,18.94
2022-08-28T01:18:57.900Z,18.93
2022-08-28T01:19:57.898Z,18.91
2022-08-28T01:20:57.909Z,18.93
2022-08-28T01:21:57.880Z,18.94
2022-08-28T01:22:58.657Z,18.93
2022-08-28T01:23:57.849Z,18.96
2022-08-28T01:24:57.820Z,18.94
2022-08-28T01:25:57.859Z,18.97
2022-08-28T01:26:57.820Z,18.96
2022-08-28T01:27:57.832Z,18.94
2022-08-28T01:28:57.792Z,18.97
2022-08-28T01:29:57.810Z,18.96
2022-08-28T01:30:58.171Z,18.93
2022-08-28T01:31:57.902Z,18.97
2022-08-28T01:32:59.617Z,18.97
2022-08-28T01:33:57.756Z,18.98
2022-08-28T01:34:58.555Z,18.97
2022-08-28T01:35:57.933Z,18.96
2022-08-28T01:36:58.533Z,18.96
2022-08-28T01:37:57.695Z,18.96
2022-08-28T01:38:57.675Z,18.96
2022-08-28T01:39:57.731Z,18.94
2022-08-28T01:40:57.698Z,18.91
2022-08-28T01:41:57.677Z,18.94
2022-08-28T01:42:57.627Z,18.91
2022-08-28T01:43:57.615Z,18.91
2022-08-28T01:44:57.616Z,18.89
2022-08-28T01:45:57.725Z,18.88
2022-08-28T01:46:57.614Z,18.85
2022-08-28T01:47:57.590Z,18.86
2022-08-28T01:48:57.567Z,18.86
2022-08-28T01:49:57.567Z,18.85
2022-08-28T01:50:57.700Z,18.83
2022-08-28T01:51:57.559Z,18.82
2022-08-28T01:52:57.536Z,18.86
2022-08-28T01:53:57.511Z,18.86
2022-08-28T01:54:58.056Z,18.86
2022-08-28T01:55:57.498Z,18.86
2022-08-28T01:56:57.529Z,18.85
2022-08-28T01:57:58.541Z,18.88
2022-08-28T01:58:57.473Z,18.89
2022-08-28T01:59:57.473Z,18.91
2022-08-28T02:00:57.479Z,18.93
2022-08-28T02:01:57.536Z,18.91
2022-08-28T02:02:57.513Z,18.89
2022-08-28T02:03:57.468Z,18.91
2022-08-28T02:04:57.422Z,18.88
2022-08-28T02:05:57.401Z,18.86
2022-08-28T02:06:57.383Z,18.86
2022-08-28T02:07:57.423Z,18.86
2022-08-28T02:08:57.383Z,18.88
2022-08-28T02:09:57.357Z,18.88
2022-08-28T02:10:57.364Z,18.86
2022-08-28T02:11:57.365Z,18.86
2022-08-28T02:12:59.111Z,18.86
2022-08-28T02:13:57.393Z,18.85
2022-08-28T02:14:57.314Z,18.85
2022-08-28T02:15:57.385Z,18.82
2022-08-28T02:16:57.358Z,18.78
2022-08-28T02:17:57.278Z,18.78
2022-08-28T02:18:57.259Z,18.83
2022-08-28T02:19:57.298Z,18.82
2022-08-28T02:20:57.279Z,18.83
2022-08-28T02:21:57.237Z,18.83
2022-08-28T02:22:57.208Z,18.85
2022-08-28T02:23:57.198Z,18.88
2022-08-28T02:24:57.190Z,18.86
2022-08-28T02:25:57.220Z,18.86
2022-08-28T02:26:57.161Z,18.85
2022-08-28T02:27:57.148Z,18.83
2022-08-28T02:28:57.151Z,18.82
2022-08-28T02:29:57.162Z,18.83
2022-08-28T02:30:57.497Z,18.83
2022-08-28T02:31:57.171Z,18.85
2022-08-28T02:32:57.098Z,18.86
2022-08-28T02:33:57.133Z,18.88
2022-08-28T02:34:57.134Z,18.91
2022-08-28T02:35:57.091Z,18.93
2022-08-28T02:36:57.083Z,18.89
2022-08-28T02:37:57.102Z,18.86
2022-08-28T02:38:57.996Z,18.83
2022-08-28T02:39:57.469Z,18.83
2022-08-28T02:40:57.096Z,18.83
2022-08-28T02:41:57.012Z,18.81
2022-08-28T02:42:56.984Z,18.83
2022-08-28T02:43:56.978Z,18.82
2022-08-28T02:44:56.973Z,18.79
2022-08-28T02:45:57.000Z,18.81
2022-08-28T02:46:57.043Z,18.78
2022-08-28T02:47:56.944Z,18.78
2022-08-28T02:48:56.917Z,18.78
2022-08-28T02:49:56.935Z,18.79
2022-08-28T02:50:56.946Z,18.81
2022-08-28T02:51:56.924Z,18.82
2022-08-28T02:52:56.880Z,18.82
2022-08-28T02:53:56.877Z,18.83
2022-08-28T02:54:56.867Z,18.82
2022-08-28T02:55:56.849Z,18.82
2022-08-28T02:56:56.907Z,18.81
2022-08-28T02:57:56.832Z,18.79
2022-08-28T02:58:56.839Z,18.74
2022-08-28T02:59:56.829Z,18.75
2022-08-28T03:00:56.890Z,18.75
2022-08-28T03:01:56.787Z,18.75
2022-08-28T03:02:56.860Z,18.75
2022-08-28T03:03:56.761Z,18.75
2022-08-28T03:04:56.752Z,18.70
2022-08-28T03:05:56.749Z,18.71
2022-08-28T03:06:56.771Z,18.68
2022-08-28T03:07:56.740Z,18.66
2022-08-28T03:08:56.722Z,18.67
2022-08-28T03:09:56.712Z,18.68
2022-08-28T03:10:56.761Z,18.68
2022-08-28T03:11:56.684Z,18.68
2022-08-28T03:12:56.702Z,18.68
2022-08-28T03:13:56.671Z,18.70
2022-08-28T03:14:56.634Z,18.68
2022-08-28T03:15:56.635Z,18.71
2022-08-28T03:16:56.676Z,18.74
2022-08-28T03:17:56.763Z,18.71
2022-08-28T03:18:56.595Z,18.68
2022-08-28T03:19:56.604Z,18.66
2022-08-28T03:20:56.598Z,18.68
2022-08-28T03:21:56.574Z,18.67
2022-08-28T03:22:56.588Z,18.66
2022-08-28T03:23:56.575Z,18.61
2022-08-28T03:24:57.316Z,18.60
2022-08-28T03:25:56.530Z,18.60
2022-08-28T03:26:56.605Z,18.61
2022-08-28T03:27:56.497Z,18.61
2022-08-28T03:28:56.548Z,18.64
2022-08-28T03:29:56.499Z,18.64
2022-08-28T03:30:56.605Z,18.66
2022-08-28T03:31:56.527Z,18.68
2022-08-28T03:32:56.478Z,18.66
2022-08-28T03:33:56.556Z,18.64
2022-08-28T03:34:56.456Z,18.63
2022-08-28T03:35:56.454Z,18.67
2022-08-28T03:36:56.489Z,18.68
2022-08-28T03:37:56.408Z,18.67
2022-08-28T03:38:56.731Z,18.64
2022-08-28T03:39:56.429Z,18.66
2022-08-28T03:40:56.483Z,18.64
2022-08-28T03:41:56.420Z,18.64
2022-08-28T03:42:56.380Z,18.64
2022-08-28T03:43:56.372Z,18.63
2022-08-28T03:44:56.379Z,18.64
2022-08-28T03:45:56.365Z,18.63
2022-08-28T03:46:56.393Z,18.61
2022-08-28T03:47:56.355Z,18.60
2022-08-28T03:48:56.343Z,18.60
2022-08-28T03:49:56.303Z,18.60
2022-08-28T03:50:56.289Z,18.63
2022-08-28T03:51:56.304Z,18.63
2022-08-28T03:52:56.293Z,18.61
2022-08-28T03:53:56.685Z,18.60
2022-08-28T03:54:56.225Z,18.61
2022-08-28T03:55:56.245Z,18.60
2022-08-28T03:56:56.267Z,18.63
2022-08-28T03:57:56.187Z,18.66
2022-08-28T03:58:56.176Z,18.66
2022-08-28T03:59:56.186Z,18.67
2022-08-28T04:00:56.305Z,18.67
2022-08-28T04:01:56.167Z,18.70
2022-08-28T04:02:56.184Z,18.70
2022-08-28T04:03:56.120Z,18.74
2022-08-28T04:04:56.108Z,18.68
2022-08-28T04:05:56.108Z,18.66
2022-08-28T04:06:56.079Z,18.64
2022-08-28T04:07:56.130Z,18.63
2022-08-28T04:09:00.099Z,18.61
2022-08-28T04:09:56.069Z,18.64
2022-08-28T04:10:56.047Z,18.61
2022-08-28T04:11:56.319Z,18.61
2022-08-28T04:12:56.108Z,18.63
2022-08-28T04:13:56.039Z,18.63
2022-08-28T04:14:56.001Z,18.64
2022-08-28T04:15:55.995Z,18.66
2022-08-28T04:17:00.940Z,18.63
2022-08-28T04:17:56.989Z,18.67
2022-08-28T04:18:55.992Z,18.68
2022-08-28T04:19:55.967Z,18.66
2022-08-28T04:20:55.943Z,18.67
2022-08-28T04:21:55.952Z,18.68
2022-08-28T04:22:56.032Z,18.70
2022-08-28T04:23:55.940Z,18.70
2022-08-28T04:24:55.896Z,18.71
2022-08-28T04:25:55.895Z,18.70
2022-08-28T04:26:55.871Z,18.70
2022-08-28T04:27:55.895Z,18.70
2022-08-28T04:28:56.114Z,18.70
2022-08-28T04:29:55.861Z,18.68
2022-08-28T04:30:55.836Z,18.71
2022-08-28T04:31:56.179Z,18.70
2022-08-28T04:32:55.843Z,18.70
2022-08-28T04:33:55.804Z,18.71
2022-08-28T04:34:55.818Z,18.70
2022-08-28T04:35:55.889Z,18.74
2022-08-28T04:36:55.855Z,18.74
2022-08-28T04:37:58.867Z,18.75
2022-08-28T04:38:55.757Z,18.75
2022-08-28T04:39:56.053Z,18.78
2022-08-28T04:40:56.138Z,18.81
2022-08-28T04:41:55.710Z,18.79
2022-08-28T04:42:55.720Z,18.76
2022-08-28T04:43:55.691Z,18.78
2022-08-28T04:44:55.678Z,18.76
2022-08-28T04:45:55.715Z,18.75
2022-08-28T04:46:56.277Z,18.78
2022-08-28T04:47:55.649Z,18.76
2022-08-28T04:48:55.661Z,18.76
2022-08-28T04:49:55.633Z,18.76
2022-08-28T04:50:55.621Z,18.76
2022-08-28T04:51:55.621Z,18.79
2022-08-28T04:52:55.620Z,18.78
2022-08-28T04:53:55.571Z,18.79
2022-08-28T04:54:55.583Z,18.78
2022-08-28T04:55:55.563Z,18.78
2022-08-28T04:56:55.561Z,18.78
2022-08-28T04:57:55.623Z,18.78
2022-08-28T04:58:55.536Z,18.78
2022-08-28T04:59:55.512Z,18.76
2022-08-28T05:00:55.565Z,18.76
2022-08-28T05:01:55.547Z,18.76
2022-08-28T05:02:55.615Z,18.79
2022-08-28T05:03:55.491Z,18.79
2022-08-28T05:04:55.470Z,18.79
2022-08-28T05:05:55.456Z,18.79
2022-08-28T05:06:55.448Z,18.79
2022-08-28T05:07:55.455Z,18.74
2022-08-28T05:08:55.446Z,18.74
2022-08-28T05:09:55.413Z,18.71
2022-08-28T05:10:55.402Z,18.76
2022-08-28T05:11:55.407Z,18.75
2022-08-28T05:12:55.398Z,18.74
2022-08-28T05:13:55.363Z,18.76
2022-08-28T05:14:55.387Z,18.78
2022-08-28T05:15:55.420Z,18.81
2022-08-28T05:16:55.329Z,18.81
2022-08-28T05:17:55.321Z,18.79
2022-08-28T05:18:55.309Z,18.79
2022-08-28T05:19:55.482Z,18.81
2022-08-28T05:20:55.291Z,18.83
2022-08-28T05:21:55.300Z,18.82
2022-08-28T05:22:55.273Z,18.85
2022-08-28T05:23:55.272Z,18.85
2022-08-28T05:24:55.240Z,18.83
2022-08-28T05:25:55.263Z,18.83
2022-08-28T05:26:55.224Z,18.83
2022-08-28T05:27:55.273Z,18.85
2022-08-28T05:28:55.200Z,18.85
2022-08-28T05:29:58.532Z,18.83
2022-08-28T05:30:56.211Z,18.85
2022-08-28T05:31:55.253Z,18.88
2022-08-28T05:32:55.202Z,18.85
2022-08-28T05:33:55.166Z,18.88
2022-08-28T05:34:55.143Z,18.86
2022-08-28T05:35:55.124Z,18.88
2022-08-28T05:36:55.114Z,18.89
2022-08-28T05:37:55.158Z,18.89
2022-08-28T05:38:55.115Z,18.94
2022-08-28T05:39:55.154Z,18.93
2022-08-28T05:40:55.116Z,18.94
2022-08-28T05:41:55.065Z,18.96
2022-08-28T05:42:55.165Z,18.98
2022-08-28T05:43:55.070Z,19.01
2022-08-28T05:44:55.056Z,19.01
2022-08-28T05:45:55.069Z,19.01
2022-08-28T05:46:55.791Z,19.04
2022-08-28T05:47:55.368Z,19.01
2022-08-28T05:48:55.217Z,19.00
2022-08-28T05:49:55.041Z,19.04
2022-08-28T05:50:54.970Z,19.05
2022-08-28T05:51:54.959Z,19.05
2022-08-28T05:52:54.965Z,19.04
2022-08-28T05:53:54.919Z,19.04
2022-08-28T05:54:54.922Z,19.01
2022-08-28T05:55:54.900Z,19.00
2022-08-28T05:56:54.936Z,19.00
2022-08-28T05:57:54.905Z,18.98
2022-08-28T05:58:54.929Z,18.97
2022-08-28T05:59:54.874Z,18.97
2022-08-28T06:00:54.904Z,19.00
2022-08-28T06:01:54.951Z,18.98
2022-08-28T06:02:54.842Z,18.97
2022-08-28T06:03:54.947Z,18.98
2022-08-28T06:04:54.825Z,19.00
2022-08-28T06:05:54.794Z,18.98
2022-08-28T06:06:54.828Z,18.96
2022-08-28T06:07:54.837Z,18.97
2022-08-28T06:08:58.541Z,18.97
2022-08-28T06:09:54.763Z,18.96
2022-08-28T06:10:54.763Z,18.97
2022-08-28T06:11:54.744Z,18.98
2022-08-28T06:12:54.784Z,18.98
2022-08-28T06:13:54.778Z,18.96
2022-08-28T06:14:54.793Z,18.93
2022-08-28T06:15:54.764Z,18.93
2022-08-28T06:16:54.783Z,18.93
2022-08-28T06:17:54.781Z,18.91
2022-08-28T06:18:54.666Z,18.91
2022-08-28T06:19:54.724Z,18.91
2022-08-28T06:20:54.650Z,18.93
2022-08-28T06:21:54.647Z,18.96
2022-08-28T06:22:54.640Z,18.94
2022-08-28T06:23:54.614Z,18.91
2022-08-28T06:24:54.939Z,18.89
2022-08-28T06:25:54.581Z,18.89
2022-08-28T06:26:56.491Z,18.85
2022-08-28T06:27:54.579Z,18.86
2022-08-28T06:28:54.559Z,18.85
2022-08-28T06:29:54.568Z,18.85
2022-08-28T06:31:18.099Z,18.79
2022-08-28T06:31:55.565Z,18.88
2022-08-28T06:32:54.534Z,18.91
2022-08-28T06:33:54.643Z,18.85
2022-08-28T06:34:54.859Z,18.82
2022-08-28T06:35:54.513Z,18.85
2022-08-28T06:36:54.578Z,18.82
2022-08-28T06:37:54.495Z,18.83
2022-08-28T06:38:54.584Z,18.85
2022-08-28T06:39:54.538Z,18.86
2022-08-28T06:40:54.644Z,18.86
2022-08-28T06:41:54.434Z,18.85
2022-08-28T06:42:54.414Z,18.82
2022-08-28T06:43:54.424Z,18.82
2022-08-28T06:44:54.554Z,18.83
2022-08-28T06:45:54.521Z,18.88
2022-08-28T06:46:54.408Z,18.94
2022-08-28T06:47:54.353Z,18.93
2022-08-28T06:48:54.342Z,18.93
2022-08-28T06:49:54.324Z,18.91
2022-08-28T06:50:54.346Z,18.91
2022-08-28T06:51:54.337Z,18.97
2022-08-28T06:52:54.327Z,19.00
2022-08-28T06:53:54.297Z,18.98
2022-08-28T06:54:55.961Z,18.98
2022-08-28T06:55:54.271Z,19.00
2022-08-28T06:56:54.287Z,19.00
2022-08-28T06:57:54.281Z,19.00
2022-08-28T06:58:54.245Z,19.00
2022-08-28T06:59:54.240Z,19.04
2022-08-28T07:01:02.257Z,19.01
2022-08-28T07:01:55.345Z,19.01
2022-08-28T07:02:54.277Z,19.05
2022-08-28T07:03:54.201Z,19.05
2022-08-28T07:04:54.235Z,19.12
2022-08-28T07:05:54.153Z,19.09
2022-08-28T07:06:55.010Z,19.07
2022-08-28T07:07:54.241Z,19.09
2022-08-28T07:08:54.131Z,19.13
2022-08-28T07:09:54.123Z,19.16
2022-08-28T07:10:54.115Z,19.22
2022-08-28T07:11:54.101Z,19.20
2022-08-28T07:12:54.111Z,19.20
2022-08-28T07:13:54.118Z,19.23
2022-08-28T07:14:54.066Z,19.26
2022-08-28T07:15:54.111Z,19.26
2022-08-28T07:16:54.087Z,19.27
2022-08-28T07:17:54.023Z,19.27
2022-08-28T07:18:54.059Z,19.27
2022-08-28T07:19:54.046Z,19.31
2022-08-28T07:20:53.995Z,19.31
2022-08-28T07:21:54.045Z,19.35
2022-08-28T07:22:55.917Z,19.34
2022-08-28T07:23:54.970Z,19.37
2022-08-28T07:24:53.954Z,19.39
2022-08-28T07:25:54.270Z,19.39
2022-08-28T07:26:53.953Z,19.38
2022-08-28T07:27:53.937Z,19.44
2022-08-28T07:29:09.937Z,19.37
2022-08-28T07:29:54.968Z,19.35
2022-08-28T07:30:53.937Z,19.35
2022-08-28T07:31:53.876Z,19.37
2022-08-28T07:32:54.061Z,19.38
2022-08-28T07:33:54.183Z,19.37
2022-08-28T07:34:53.848Z,19.37
2022-08-28T07:35:53.829Z,19.38
2022-08-28T07:36:53.868Z,19.35
2022-08-28T07:37:53.821Z,19.35
2022-08-28T07:38:53.818Z,19.38
2022-08-28T07:39:53.819Z,19.37
2022-08-28T07:40:53.780Z,19.39
2022-08-28T07:41:53.823Z,19.39
2022-08-28T07:42:53.760Z,19.42
2022-08-28T07:43:53.750Z,19.45
2022-08-28T07:44:53.742Z,19.47
2022-08-28T07:45:53.817Z,19.44
2022-08-28T07:46:53.799Z,19.50
2022-08-28T07:47:53.729Z,19.53
2022-08-28T07:48:53.725Z,19.53
2022-08-28T07:49:53.771Z,19.57
2022-08-28T07:50:53.693Z,19.60
2022-08-28T07:51:54.376Z,19.64
2022-08-28T07:52:53.655Z,19.64
2022-08-28T07:53:53.655Z,19.64
2022-08-28T07:54:53.636Z,19.62
2022-08-28T07:55:53.614Z,19.62
2022-08-28T07:56:53.640Z,19.56
2022-08-28T07:57:54.495Z,19.53
2022-08-28T07:58:53.894Z,19.54
2022-08-28T07:59:53.632Z,19.59
2022-08-28T08:00:53.894Z,19.52
2022-08-28T08:01:53.573Z,19.47
2022-08-28T08:02:53.577Z,19.44
2022-08-28T08:03:55.954Z,19.41
2022-08-28T08:04:54.545Z,19.45
2022-08-28T08:05:53.507Z,19.45
2022-08-28T08:06:57.844Z,19.50
2022-08-28T08:07:53.519Z,19.53
2022-08-28T08:08:53.769Z,19.49
2022-08-28T08:09:53.887Z,19.53
2022-08-28T08:10:53.448Z,19.56
2022-08-28T08:11:53.605Z,19.59
2022-08-28T08:12:53.448Z,19.63
2022-08-28T08:13:53.464Z,19.67
2022-08-28T08:14:53.450Z,19.70
2022-08-28T08:15:53.485Z,19.70
2022-08-28T08:16:53.393Z,19.71
2022-08-28T08:17:53.410Z,19.70
2022-08-28T08:18:53.400Z,19.67
2022-08-28T08:19:53.435Z,19.70
2022-08-28T08:20:53.401Z,19.64
2022-08-28T08:21:55.049Z,19.68
2022-08-28T08:22:53.333Z,19.74
2022-08-28T08:23:53.334Z,19.78
2022-08-28T08:24:53.344Z,19.74
2022-08-28T08:25:53.324Z,19.72
2022-08-28T08:26:59.729Z,19.68
2022-08-28T08:27:54.273Z,19.70
2022-08-28T08:28:53.252Z,19.72
2022-08-28T08:29:53.280Z,19.75
2022-08-28T08:30:53.341Z,19.84
2022-08-28T08:31:53.562Z,19.87
2022-08-28T08:32:53.276Z,19.84
2022-08-28T08:33:53.227Z,19.84
2022-08-28T08:34:53.249Z,19.84
2022-08-28T08:35:53.196Z,19.90
2022-08-28T08:36:53.176Z,19.92
2022-08-28T08:37:53.267Z,19.90
2022-08-28T08:38:59.459Z,19.92
2022-08-28T08:39:54.236Z,19.93
2022-08-28T08:40:53.155Z,19.96
2022-08-28T08:41:53.118Z,19.96
2022-08-28T08:42:53.135Z,19.94
2022-08-28T08:43:53.121Z,19.92
2022-08-28T08:44:53.469Z,19.93
2022-08-28T08:45:53.104Z,19.89
2022-08-28T08:46:53.980Z,19.93
2022-08-28T08:47:53.119Z,19.92
2022-08-28T08:48:53.062Z,19.94
2022-08-28T08:49:53.883Z,19.97
2022-08-28T08:50:53.040Z,19.96
2022-08-28T08:51:53.355Z,19.99
2022-08-28T08:52:53.022Z,20.02
2022-08-28T08:53:53.000Z,20.00
2022-08-28T08:54:56.414Z,20.00
2022-08-28T08:55:53.982Z,20.05
2022-08-28T08:56:52.960Z,20.08
2022-08-28T08:57:52.996Z,20.08
2022-08-28T08:58:53.033Z,20.15
2022-08-28T08:59:53.332Z,20.14
2022-08-28T09:00:53.243Z,20.11
2022-08-28T09:01:52.979Z,20.12
2022-08-28T09:02:52.895Z,20.09
2022-08-28T09:03:53.033Z,20.09
2022-08-28T09:04:52.882Z,20.15
2022-08-28T09:05:53.205Z,20.22
2022-08-28T09:06:52.865Z,20.22
2022-08-28T09:07:53.335Z,20.25
2022-08-28T09:08:53.626Z,20.23
2022-08-28T09:09:52.828Z,20.26
2022-08-28T09:10:52.825Z,20.25
2022-08-28T09:11:56.552Z,20.19
2022-08-28T09:12:52.796Z,20.18
2022-08-28T09:13:52.806Z,20.22
2022-08-28T09:14:52.787Z,20.18
2022-08-28T09:15:52.849Z,20.22
2022-08-28T09:16:52.840Z,20.23
2022-08-28T09:17:52.983Z,20.25
2022-08-28T09:18:52.728Z,20.19
2022-08-28T09:19:52.750Z,20.17
2022-08-28T09:20:52.711Z,20.18
2022-08-28T09:21:52.741Z,20.23
2022-08-28T09:22:52.710Z,20.19
2022-08-28T09:23:53.517Z,20.22
2022-08-28T09:24:53.219Z,20.22
2022-08-28T09:25:52.755Z,20.23
2022-08-28T09:26:52.925Z,20.29
2022-08-28T09:27:52.675Z,20.33
2022-08-28T09:28:52.788Z,20.32
2022-08-28T09:29:52.759Z,20.32
2022-08-28T09:30:52.842Z,20.34
2022-08-28T09:31:52.966Z,20.37
2022-08-28T09:32:52.580Z,20.36
2022-08-28T09:33:52.756Z,20.44
2022-08-28T09:34:52.845Z,20.42
2022-08-28T09:35:52.610Z,20.42
2022-08-28T09:36:52.569Z,20.37
2022-08-28T09:37:52.545Z,20.42
2022-08-28T09:38:52.615Z,20.39
2022-08-28T09:39:52.534Z,20.41
2022-08-28T09:40:52.500Z,20.39
2022-08-28T09:41:52.517Z,20.30
2022-08-28T09:42:52.476Z,20.29
2022-08-28T09:43:52.465Z,20.33
2022-08-28T09:44:52.483Z,20.33
2022-08-28T09:45:52.456Z,20.29
2022-08-28T09:46:52.456Z,20.32
2022-08-28T09:47:52.437Z,20.32
2022-08-28T09:48:52.437Z,20.30
2022-08-28T09:49:52.388Z,20.30
2022-08-28T09:50:52.441Z,20.26
2022-08-28T09:51:52.787Z,20.26
2022-08-28T09:52:52.367Z,20.15
2022-08-28T09:53:52.347Z,20.15
2022-08-28T09:54:52.349Z,20.12
2022-08-28T09:55:52.366Z,20.07
2022-08-28T09:56:52.319Z,20.00
2022-08-28T09:57:52.388Z,19.97
2022-08-28T09:58:52.317Z,19.96
2022-08-28T09:59:52.282Z,19.94
2022-08-28T10:00:52.282Z,19.90
2022-08-28T10:01:52.508Z,19.90
2022-08-28T10:02:52.548Z,19.93
2022-08-28T10:03:52.735Z,19.89
2022-08-28T10:04:52.259Z,19.96
2022-08-28T10:05:52.251Z,19.90
2022-08-28T10:06:52.267Z,20.04
2022-08-28T10:07:52.231Z,20.00
2022-08-28T10:08:52.235Z,20.07
2022-08-28T10:09:52.194Z,20.11
2022-08-28T10:10:52.984Z,20.11
2022-08-28T10:11:52.222Z,20.12
2022-08-28T10:12:52.225Z,20.18
2022-08-28T10:13:52.162Z,20.29
2022-08-28T10:14:52.136Z,20.32
2022-08-28T10:15:52.729Z,20.34
2022-08-28T10:16:52.179Z,20.37
2022-08-28T10:17:52.115Z,20.44
2022-08-28T10:18:52.116Z,20.44
2022-08-28T10:19:52.077Z,20.42
2022-08-28T10:20:52.082Z,20.37
2022-08-28T10:21:52.154Z,20.44
2022-08-28T10:22:52.056Z,20.48
2022-08-28T10:23:52.086Z,20.44
2022-08-28T10:24:52.042Z,20.36
2022-08-28T10:25:52.025Z,20.34
2022-08-28T10:26:52.032Z,20.36
2022-08-28T10:27:51.998Z,20.30
2022-08-28T10:28:51.990Z,20.30
2022-08-28T10:29:51.980Z,20.33
2022-08-28T10:30:52.011Z,20.32
2022-08-28T10:31:51.975Z,20.32
2022-08-28T10:32:52.002Z,20.34
2022-08-28T10:33:51.932Z,20.30
2022-08-28T10:34:52.226Z,20.22
2022-08-28T10:35:52.489Z,20.22
2022-08-28T10:36:51.914Z,20.18
2022-08-28T10:37:53.028Z,20.14
2022-08-28T10:38:53.063Z,20.17
2022-08-28T10:39:52.456Z,20.15
2022-08-28T10:40:51.852Z,20.02
2022-08-28T10:41:51.844Z,20.05
2022-08-28T10:42:51.856Z,20.05
2022-08-28T10:43:51.824Z,20.08
2022-08-28T10:44:51.803Z,20.04
2022-08-28T10:45:51.886Z,19.99
2022-08-28T10:46:51.785Z,19.87
2022-08-28T10:47:51.775Z,19.86
2022-08-28T10:48:51.785Z,19.87
2022-08-28T10:49:51.753Z,19.81
2022-08-28T10:50:51.766Z,19.82
2022-08-28T10:51:52.217Z,19.84
2022-08-28T10:52:57.927Z,20.00
2022-08-28T10:53:51.728Z,19.99
2022-08-28T10:54:51.711Z,20.00
2022-08-28T10:55:51.685Z,20.05
2022-08-28T10:56:56.477Z,20.14
2022-08-28T10:57:52.665Z,20.12
2022-08-28T10:58:51.709Z,20.09
2022-08-28T10:59:51.646Z,20.08
2022-08-28T11:00:51.627Z,20.04
2022-08-28T11:01:51.968Z,20.00
2022-08-28T11:02:51.689Z,19.97
2022-08-28T11:03:51.974Z,20.00
2022-08-28T11:04:55.309Z,20.02
2022-08-28T11:05:53.919Z,19.99
2022-08-28T11:06:51.569Z,19.97
2022-08-28T11:07:51.580Z,19.99
2022-08-28T11:08:51.723Z,19.96
2022-08-28T11:09:51.532Z,19.92
2022-08-28T11:10:51.521Z,19.93
2022-08-28T11:11:51.517Z,19.93
2022-08-28T11:12:51.506Z,20.02
2022-08-28T11:13:51.523Z,20.05
2022-08-28T11:14:51.481Z,20.05
2022-08-28T11:15:51.832Z,20.09
2022-08-28T11:16:51.605Z,20.07
2022-08-28T11:17:51.461Z,20.00
2022-08-28T11:18:51.453Z,19.92
2022-08-28T11:19:52.570Z,19.97
2022-08-28T11:20:51.427Z,20.00
2022-08-28T11:21:51.425Z,20.04
2022-08-28T11:22:51.396Z,19.99
2022-08-28T11:23:51.445Z,19.96
2022-08-28T11:24:51.404Z,20.00
2022-08-28T11:25:52.166Z,20.07
2022-08-28T11:26:51.374Z,20.02
2022-08-28T11:27:51.354Z,20.04
2022-08-28T11:28:51.646Z,20.04
2022-08-28T11:29:51.314Z,20.08
2022-08-28T11:30:51.371Z,20.08
2022-08-28T11:31:51.306Z,20.05
2022-08-28T11:32:51.305Z,20.07
2022-08-28T11:33:51.318Z,20.11
2022-08-28T11:34:51.318Z,20.08
2022-08-28T11:35:51.256Z,20.18
2022-08-28T11:36:51.326Z,20.19
2022-08-28T11:37:51.319Z,20.23
2022-08-28T11:38:51.248Z,20.26
2022-08-28T11:39:51.274Z,20.27
2022-08-28T11:40:51.223Z,20.32
2022-08-28T11:41:51.520Z,20.39
2022-08-28T11:42:51.204Z,20.44
2022-08-28T11:43:51.187Z,20.48
2022-08-28T11:44:51.179Z,20.42
2022-08-28T11:45:51.225Z,20.42
2022-08-28T11:46:51.175Z,20.41
2022-08-28T11:47:51.150Z,20.34
2022-08-28T11:48:51.169Z,20.39
2022-08-28T11:49:51.924Z,20.41
2022-08-28T11:50:51.098Z,20.41
2022-08-28T11:51:51.108Z,20.46
2022-08-28T11:52:51.083Z,20.42
2022-08-28T11:53:51.092Z,20.44
2022-08-28T11:54:51.141Z,20.41
2022-08-28T11:55:51.062Z,20.52
2022-08-28T11:56:51.048Z,20.53
2022-08-28T11:57:51.054Z,20.60
2022-08-28T11:58:51.046Z,20.61
2022-08-28T11:59:50.994Z,20.61
2022-08-28T12:00:51.776Z,20.64
2022-08-28T12:01:51.016Z,20.63
2022-08-28T12:02:51.153Z,20.56
2022-08-28T12:03:50.981Z,20.60
2022-08-28T12:04:50.996Z,20.60
2022-08-28T12:05:51.037Z,20.58
2022-08-28T12:06:50.933Z,20.60
2022-08-28T12:07:50.906Z,20.67
2022-08-28T12:08:50.953Z,20.70
2022-08-28T12:09:50.888Z,20.79
2022-08-28T12:10:50.884Z,20.82
2022-08-28T12:11:50.905Z,20.92
2022-08-28T12:12:50.859Z,20.92
2022-08-28T12:13:50.887Z,21.01
2022-08-28T12:14:50.859Z,20.98
2022-08-28T12:15:51.030Z,20.93
2022-08-28T12:20:02.267Z,20.92
2022-08-28T12:21:02.221Z,20.86
2022-08-28T12:22:02.203Z,20.86
2022-08-28T12:23:02.206Z,20.86
2022-08-28T12:24:09.025Z,20.77
2022-08-28T12:25:03.204Z,20.80
2022-08-28T12:26:02.248Z,20.88
2022-08-28T12:27:02.164Z,20.95
2022-08-28T12:28:02.134Z,20.98
2022-08-28T12:29:02.177Z,21.01
2022-08-28T12:30:02.133Z,21.03
2022-08-28T12:31:02.232Z,21.01
2022-08-28T12:32:02.925Z,21.05
2022-08-28T12:33:02.715Z,21.01
2022-08-28T12:34:02.077Z,21.01
2022-08-28T12:35:02.085Z,20.98
2022-08-28T12:36:02.087Z,21.03
2022-08-28T12:37:02.085Z,21.07
2022-08-28T12:38:02.049Z,21.13
2022-08-28T12:39:02.037Z,21.20
2022-08-28T12:40:02.106Z,21.20
2022-08-28T12:41:02.011Z,21.25
2022-08-28T12:42:02.030Z,21.28
2022-08-28T12:43:01.992Z,21.35
2022-08-28T12:44:01.976Z,21.40
2022-08-28T12:45:01.970Z,21.43
2022-08-28T12:46:02.060Z,21.58
2022-08-28T12:47:02.106Z,21.60
2022-08-28T12:48:10.657Z,21.56
2022-08-28T12:51:30.990Z,21.51
2022-08-28T12:52:30.697Z,21.44
2022-08-28T12:53:30.711Z,21.43
2022-08-28T12:54:30.690Z,21.50
2022-08-28T12:55:30.669Z,21.50
2022-08-28T12:56:30.679Z,21.55
2022-08-28T12:57:30.648Z,21.58
2022-08-28T12:58:30.632Z,21.56